createdAt,value
2018-01-10T00:02:08.727Z,91.27
2018-01-10T00:04:37.112Z,91.24
2018-01-10T00:07:05.530Z,91.04
2018-01-10T00:09:33.931Z,91.72
2018-01-10T00:12:02.317Z,91.71
2018-01-10T00:14:30.742Z,91.88
2018-01-10T00:16:59.177Z,92.29
2018-01-10T00:19:27.657Z,92.36
2018-01-10T00:21:56.083Z,92.27
2018-01-10T00:24:25.315Z,92.14
2018-01-10T00:26:53.707Z,92.00
2018-01-10T00:29:22.122Z,92.08
2018-01-10T00:31:50.578Z,92.10
2018-01-10T00:34:19.025Z,92.12
2018-01-10T00:36:47.411Z,91.96
2018-01-10T00:39:15.838Z,91.75
2018-01-10T00:41:44.291Z,91.52
2018-01-10T00:44:12.732Z,91.42
2018-01-10T00:46:41.104Z,91.68
2018-01-10T00:49:10.316Z,92.07
2018-01-10T00:51:38.708Z,92.55
2018-01-10T00:54:07.166Z,92.58
2018-01-10T00:56:36.305Z,92.67
2018-01-10T00:59:04.752Z,92.50
2018-01-10T01:01:33.150Z,92.21
2018-01-10T01:04:01.567Z,92.06
2018-01-10T01:06:29.986Z,91.76
2018-01-10T01:08:58.369Z,91.71
2018-01-10T01:11:27.552Z,91.65
2018-01-10T01:13:56.778Z,90.95
2018-01-10T01:16:25.141Z,90.70
2018-01-10T01:18:54.335Z,91.06
2018-01-10T01:21:22.727Z,90.89
2018-01-10T01:23:51.142Z,90.80
2018-01-10T01:26:19.567Z,91.18
2018-01-10T01:28:48.731Z,91.09
2018-01-10T01:31:17.150Z,90.97
2018-01-10T01:33:45.540Z,91.17
2018-01-10T01:36:13.968Z,91.27
2018-01-10T01:38:42.432Z,92.03
2018-01-10T01:41:10.863Z,92.14
2018-01-10T01:43:39.302Z,92.00
2018-01-10T01:46:07.951Z,91.71
2018-01-10T01:48:36.400Z,91.49
2018-01-10T01:51:04.792Z,91.34
2018-01-10T01:53:33.368Z,91.40
2018-01-10T01:56:02.556Z,91.24
2018-01-10T01:58:30.927Z,91.24
2018-01-10T02:01:00.133Z,91.27
2018-01-10T02:03:28.590Z,91.41
2018-01-10T02:05:57.727Z,91.27
2018-01-10T02:08:26.131Z,91.17
2018-01-10T02:10:54.484Z,91.44
2018-01-10T02:13:22.947Z,91.58
2018-01-10T02:15:51.381Z,91.42
2018-01-10T02:18:19.742Z,91.19
2018-01-10T02:20:48.131Z,90.99
2018-01-10T02:23:16.556Z,90.96
2018-01-10T02:25:45.719Z,90.98
2018-01-10T02:28:14.083Z,90.80
2018-01-10T02:30:42.512Z,90.61
2018-01-10T02:33:11.740Z,90.28
2018-01-10T02:35:40.173Z,90.10
2018-01-10T02:38:08.612Z,90.38
2018-01-10T02:40:37.092Z,90.37
2018-01-10T02:43:05.559Z,90.30
2018-01-10T02:45:33.955Z,90.26
2018-01-10T02:48:02.339Z,90.18
2018-01-10T02:50:30.782Z,89.95
2018-01-10T02:52:59.212Z,90.17
2018-01-10T02:55:27.613Z,90.17
2018-01-10T02:57:56.055Z,90.03
2018-01-10T03:00:24.491Z,90.18
2018-01-10T03:02:53.647Z,90.22
2018-01-10T03:05:22.072Z,90.26
2018-01-10T03:07:50.475Z,90.54
2018-01-10T03:10:18.838Z,90.79
2018-01-10T03:12:48.015Z,90.60
2018-01-10T03:15:17.172Z,90.44
2018-01-10T03:17:45.622Z,90.13
2018-01-10T03:20:14.047Z,89.86
2018-01-10T03:22:42.483Z,89.60
2018-01-10T03:25:10.934Z,89.56
2018-01-10T03:27:40.065Z,89.60
2018-01-10T03:30:08.516Z,90.08
2018-01-10T03:32:37.734Z,90.51
2018-01-10T03:35:06.171Z,90.45
2018-01-10T03:37:34.648Z,90.39
2018-01-10T03:40:03.016Z,90.15
2018-01-10T03:42:31.469Z,90.00
2018-01-10T03:44:59.926Z,90.08
2018-01-10T03:47:28.388Z,89.95
2018-01-10T03:49:57.600Z,89.91
2018-01-10T03:52:26.063Z,90.22
2018-01-10T03:54:54.535Z,90.28
2018-01-10T03:57:22.928Z,90.50
2018-01-10T03:59:51.284Z,90.69
2018-01-10T04:02:19.722Z,90.74
2018-01-10T04:04:48.201Z,90.77
2018-01-10T04:07:16.639Z,90.77
2018-01-10T04:09:45.010Z,90.79
2018-01-10T04:12:13.392Z,90.63
2018-01-10T04:14:41.878Z,90.32
2018-01-10T04:17:10.244Z,90.23
2018-01-10T04:19:38.670Z,90.19
2018-01-10T04:22:07.439Z,90.33
2018-01-10T04:24:36.572Z,90.67
2018-01-10T04:27:05.016Z,90.95
2018-01-10T04:29:34.234Z,90.97
2018-01-10T04:32:02.680Z,90.74
2018-01-10T04:34:31.138Z,90.37
2018-01-10T04:36:59.500Z,90.31
2018-01-10T04:39:27.900Z,91.06
2018-01-10T04:41:56.315Z,90.64
2018-01-10T04:44:25.449Z,90.55
2018-01-10T04:46:53.901Z,90.57
2018-01-10T04:49:22.290Z,90.49
2018-01-10T04:51:50.673Z,91.05
2018-01-10T04:54:19.112Z,91.01
2018-01-10T04:56:48.368Z,90.47
2018-01-10T04:59:16.743Z,89.78
2018-01-10T05:01:45.886Z,89.78
2018-01-10T05:04:14.314Z,89.96
2018-01-10T05:06:42.684Z,91.01
2018-01-10T05:09:11.123Z,90.61
2018-01-10T05:11:39.565Z,90.82
2018-01-10T05:14:07.917Z,91.02
2018-01-10T05:16:37.074Z,91.16
2018-01-10T05:19:05.520Z,91.08
2018-01-10T05:21:33.926Z,90.63
2018-01-10T05:24:02.729Z,90.44
2018-01-10T05:26:31.102Z,90.40
2018-01-10T05:28:59.491Z,90.43
2018-01-10T05:31:28.485Z,90.30
2018-01-10T05:33:57.612Z,90.36
2018-01-10T05:36:25.940Z,90.84
2018-01-10T05:38:54.386Z,90.59
2018-01-10T05:41:22.798Z,91.42
2018-01-10T05:43:51.206Z,91.45
2018-01-10T05:46:20.406Z,92.14
2018-01-10T05:48:49.510Z,92.44
2018-01-10T05:51:18.704Z,92.12
2018-01-10T05:53:47.065Z,92.08
2018-01-10T05:56:15.461Z,91.91
2018-01-10T05:58:44.604Z,91.38
2018-01-10T06:01:12.943Z,91.53
2018-01-10T06:03:42.129Z,91.81
2018-01-10T06:06:11.304Z,91.69
2018-01-10T06:08:39.746Z,91.51
2018-01-10T06:11:08.079Z,91.53
2018-01-10T06:13:36.400Z,91.49
2018-01-10T06:16:04.818Z,91.51
2018-01-10T06:18:33.219Z,92.21
2018-01-10T06:21:02.421Z,92.11
2018-01-10T06:23:31.590Z,91.99
2018-01-10T06:26:00.035Z,92.02
2018-01-10T06:28:28.420Z,92.34
2018-01-10T06:30:56.756Z,92.34
2018-01-10T06:33:25.875Z,92.17
2018-01-10T06:35:54.682Z,92.06
2018-01-10T06:38:23.048Z,91.94
2018-01-10T06:40:51.375Z,91.85
2018-01-10T06:43:19.771Z,91.32
2018-01-10T06:45:48.962Z,91.33
2018-01-10T06:48:17.320Z,91.12
2018-01-10T06:50:45.652Z,91.11
2018-01-10T06:53:14.011Z,90.78
2018-01-10T06:55:43.140Z,90.86
2018-01-10T06:58:11.530Z,90.65
2018-01-10T07:00:39.872Z,90.92
2018-01-10T07:03:09.055Z,91.02
2018-01-10T07:05:38.184Z,91.64
2018-01-10T07:08:06.508Z,90.26
2018-01-10T07:10:34.922Z,90.63
2018-01-10T07:13:03.358Z,90.52
2018-01-10T07:15:31.664Z,90.29
2018-01-10T07:18:00.788Z,90.26
2018-01-10T07:20:29.196Z,90.69
2018-01-10T07:22:57.532Z,90.56
2018-01-10T07:25:26.730Z,90.14
2018-01-10T07:27:55.060Z,89.70
2018-01-10T07:30:23.430Z,90.01
2018-01-10T07:32:51.787Z,90.54
2018-01-10T07:35:20.172Z,90.36
2018-01-10T07:37:48.548Z,89.96
2018-01-10T07:40:16.934Z,89.25
2018-01-10T07:42:45.330Z,89.55
2018-01-10T07:45:13.713Z,89.64
2018-01-10T07:47:42.099Z,89.51
2018-01-10T07:50:10.469Z,89.33
2018-01-10T07:52:38.867Z,89.51
2018-01-10T07:55:07.278Z,89.94
2018-01-10T07:57:35.729Z,90.90
2018-01-10T08:00:04.139Z,90.22
2018-01-10T08:02:32.490Z,90.02
2018-01-10T08:05:00.848Z,90.14
2018-01-10T08:07:29.234Z,90.21
2018-01-10T08:09:57.571Z,90.14
2018-01-10T08:12:25.915Z,90.08
2018-01-10T08:14:54.292Z,90.18
2018-01-10T08:17:22.707Z,90.04
2018-01-10T08:19:51.166Z,90.05
2018-01-10T08:22:19.595Z,89.99
2018-01-10T08:24:48.026Z,92.89
2018-01-10T08:27:17.128Z,90.49
2018-01-10T08:29:46.278Z,89.92
2018-01-10T08:32:14.655Z,90.27
2018-01-10T08:34:43.042Z,90.55
2018-01-10T08:37:11.472Z,89.51
2018-01-10T08:39:39.809Z,88.66
2018-01-10T08:42:08.595Z,87.29
2018-01-10T08:44:36.987Z,86.69
2018-01-10T08:47:06.168Z,85.43
2018-01-10T08:49:34.561Z,85.82
2018-01-10T08:52:03.737Z,86.09
2018-01-10T08:54:32.113Z,86.36
2018-01-10T08:57:00.498Z,85.83
2018-01-10T08:59:28.924Z,86.35
2018-01-10T09:01:57.300Z,86.24
2018-01-10T09:04:26.520Z,85.95
2018-01-10T09:06:54.889Z,85.62
2018-01-10T09:09:23.252Z,86.10
2018-01-10T09:11:52.434Z,86.17
2018-01-10T09:14:21.607Z,85.42
2018-01-10T09:16:50.020Z,84.59
2018-01-10T09:19:18.395Z,84.27
2018-01-10T09:21:47.555Z,83.50
2018-01-10T09:24:15.898Z,83.10
2018-01-10T09:26:44.278Z,83.33
2018-01-10T09:29:12.676Z,83.53
2018-01-10T09:31:41.018Z,83.75
2018-01-10T09:34:09.368Z,83.64
2018-01-10T09:36:37.773Z,83.54
2018-01-10T09:39:06.161Z,83.47
2018-01-10T09:41:34.588Z,83.97
2018-01-10T09:44:02.924Z,83.83
2018-01-10T09:46:31.243Z,84.44
2018-01-10T09:48:59.677Z,84.19
2018-01-10T09:51:28.098Z,84.24
2018-01-10T09:53:56.524Z,84.28
2018-01-10T09:56:24.956Z,84.40
2018-01-10T09:58:53.316Z,84.71
2018-01-10T10:01:21.648Z,84.71
2018-01-10T10:03:50.008Z,84.59
2018-01-10T10:06:18.337Z,84.79
2018-01-10T10:08:46.664Z,84.68
2018-01-10T10:11:15.024Z,85.24
2018-01-10T10:13:43.418Z,85.63
2018-01-10T10:16:11.875Z,85.40
2018-01-10T10:18:40.222Z,85.73
2018-01-10T10:21:08.616Z,85.97
2018-01-10T10:23:36.971Z,85.80
2018-01-10T10:26:06.120Z,85.71
2018-01-10T10:28:34.557Z,85.38
2018-01-10T10:31:02.885Z,85.35
2018-01-10T10:33:31.275Z,85.40
2018-01-10T10:35:59.660Z,85.28
2018-01-10T10:38:28.000Z,85.35
2018-01-10T10:40:56.418Z,85.33
2018-01-10T10:43:24.827Z,85.54
2018-01-10T10:45:53.212Z,86.68
2018-01-10T10:48:21.607Z,82.98
2018-01-10T10:50:49.973Z,83.71
2018-01-10T10:53:18.362Z,83.88
2018-01-10T10:55:46.762Z,83.99
2018-01-10T10:58:15.243Z,84.03
2018-01-10T11:00:43.651Z,83.99
2018-01-10T11:03:12.542Z,84.08
2018-01-10T11:05:41.715Z,84.07
2018-01-10T11:08:10.068Z,84.35
2018-01-10T11:10:38.425Z,84.43
2018-01-10T11:13:07.561Z,84.27
2018-01-10T11:15:35.962Z,84.17
2018-01-10T11:18:04.362Z,84.28
2018-01-10T11:20:33.579Z,84.24
2018-01-10T11:23:01.974Z,84.23
2018-01-10T11:25:30.382Z,83.98
2018-01-10T11:27:58.756Z,83.75
2018-01-10T11:30:27.108Z,83.75
2018-01-10T11:32:55.494Z,83.57
2018-01-10T11:35:23.907Z,83.61
2018-01-10T11:37:52.347Z,83.26
2018-01-10T11:40:21.591Z,82.51
2018-01-10T11:42:49.991Z,81.59
2018-01-10T11:45:19.125Z,81.75
2018-01-10T11:47:47.542Z,82.03
2018-01-10T11:50:15.898Z,82.52
2018-01-10T11:52:44.256Z,82.86
2018-01-10T11:55:12.659Z,83.23
2018-01-10T11:57:41.079Z,83.36
2018-01-10T12:00:10.277Z,83.52
2018-01-10T12:02:39.408Z,83.36
2018-01-10T12:05:07.790Z,83.66
2018-01-10T12:07:36.205Z,83.73
2018-01-10T12:10:04.548Z,83.68
2018-01-10T12:12:32.884Z,83.68
2018-01-10T12:15:01.204Z,83.50
2018-01-10T12:17:29.617Z,83.28
2018-01-10T12:19:57.975Z,83.02
2018-01-10T12:22:26.329Z,82.58
2018-01-10T12:24:55.460Z,81.84
2018-01-10T12:27:23.783Z,80.79
2018-01-10T12:29:52.111Z,80.10
2018-01-10T12:32:20.493Z,79.59
2018-01-10T12:34:48.821Z,78.80
2018-01-10T12:37:17.171Z,78.57
2018-01-10T12:39:45.536Z,78.11
2018-01-10T12:42:13.926Z,77.53
2018-01-10T12:44:42.296Z,76.44
2018-01-10T12:47:10.694Z,75.31
2018-01-10T12:49:39.036Z,74.83
2018-01-10T12:52:07.462Z,74.05
2018-01-10T12:54:36.670Z,75.19
2018-01-10T12:57:05.820Z,74.16
2018-01-10T12:59:34.217Z,73.38
2018-01-10T13:02:02.572Z,74.20
2018-01-10T13:04:30.944Z,74.95
2018-01-10T13:06:59.272Z,74.48
2018-01-10T13:09:27.641Z,74.65
2018-01-10T13:11:56.019Z,74.30
2018-01-10T13:14:24.435Z,74.24
2018-01-10T13:16:52.795Z,74.57
2018-01-10T13:19:21.982Z,74.46
2018-01-10T13:21:51.097Z,74.71
2018-01-10T13:24:20.291Z,74.93
2018-01-10T13:26:48.664Z,74.82
2018-01-10T13:29:17.096Z,74.55
2018-01-10T13:31:45.571Z,74.46
2018-01-10T13:34:13.909Z,74.68
2018-01-10T13:36:43.052Z,74.37
2018-01-10T13:39:11.407Z,73.56
2018-01-10T13:41:39.757Z,73.24
2018-01-10T13:44:08.895Z,73.84
2018-01-10T13:46:37.317Z,74.22
2018-01-10T13:49:05.744Z,73.83
2018-01-10T13:51:34.113Z,73.31
2018-01-10T13:54:02.512Z,73.45
2018-01-10T13:56:30.876Z,74.29
2018-01-10T13:58:59.560Z,74.26
2018-01-10T14:01:27.924Z,74.83
2018-01-10T14:03:57.107Z,75.12
2018-01-10T14:06:26.244Z,75.70
2018-01-10T14:08:54.638Z,75.40
2018-01-10T14:11:23.010Z,76.04
2018-01-10T14:13:51.336Z,76.37
2018-01-10T14:16:20.684Z,76.82
2018-01-10T14:18:49.041Z,77.29
2018-01-10T14:21:18.201Z,77.48
2018-01-10T14:23:46.623Z,77.84
2018-01-10T14:26:15.798Z,78.80
2018-01-10T14:28:44.921Z,79.78
2018-01-10T14:31:13.243Z,79.68
2018-01-10T14:33:41.576Z,80.00
2018-01-10T14:36:09.996Z,80.02
2018-01-10T14:38:38.435Z,80.91
2018-01-10T14:41:06.824Z,81.07
2018-01-10T14:43:35.155Z,81.34
2018-01-10T14:46:03.501Z,81.79
2018-01-10T14:48:31.819Z,82.41
2018-01-10T14:51:00.222Z,82.69
2018-01-10T14:53:28.545Z,83.33
2018-01-10T14:55:56.966Z,84.27
2018-01-10T14:58:25.410Z,84.33
2018-01-10T15:00:53.817Z,84.77
2018-01-10T15:03:22.152Z,84.89
2018-01-10T15:05:50.838Z,85.35
2018-01-10T15:08:19.191Z,85.65
2018-01-10T15:10:47.512Z,86.24
2018-01-10T15:13:15.842Z,86.04
2018-01-10T15:15:44.187Z,86.18
2018-01-10T15:18:12.535Z,86.57
2018-01-10T15:20:40.855Z,86.74
2018-01-10T15:23:09.944Z,86.88
2018-01-10T15:25:39.055Z,86.94
2018-01-10T15:28:07.379Z,87.21
2018-01-10T15:30:35.733Z,87.79
2018-01-10T15:33:04.087Z,87.84
2018-01-10T15:35:33.182Z,87.74
2018-01-10T15:38:01.509Z,87.90
2018-01-10T15:40:29.878Z,87.92
2018-01-10T15:42:58.219Z,87.84
2018-01-10T15:45:27.323Z,88.15
2018-01-10T15:47:55.676Z,88.18
2018-01-10T15:50:24.023Z,88.29
2018-01-10T15:52:52.379Z,88.19
2018-01-10T15:55:20.713Z,88.22
2018-01-10T15:57:49.791Z,88.28
2018-01-10T16:00:18.136Z,88.22
2018-01-10T16:02:46.456Z,88.23
2018-01-10T16:05:15.566Z,88.25
2018-01-10T16:07:43.896Z,88.38
2018-01-10T16:10:12.256Z,88.67
2018-01-10T16:12:40.580Z,88.60
2018-01-10T16:15:08.932Z,88.63
2018-01-10T16:17:37.294Z,88.57
2018-01-10T16:20:05.607Z,88.58
2018-01-10T16:22:33.976Z,89.02
2018-01-10T16:25:02.297Z,88.94
2018-01-10T16:27:30.652Z,89.11
2018-01-10T16:29:59.723Z,89.60
2018-01-10T16:32:28.058Z,90.92
2018-01-10T16:34:56.385Z,89.94
2018-01-10T16:37:24.760Z,89.27
2018-01-10T16:39:53.115Z,89.21
2018-01-10T16:42:21.438Z,89.31
2018-01-10T16:44:50.579Z,89.34
2018-01-10T16:47:18.895Z,89.95
2018-01-10T16:49:47.252Z,89.94
2018-01-10T16:52:15.591Z,89.73
2018-01-10T16:54:43.912Z,89.33
2018-01-10T16:57:12.276Z,89.13
2018-01-10T16:59:40.612Z,89.12
2018-01-10T17:02:09.731Z,88.83
2018-01-10T17:04:38.051Z,88.93
2018-01-10T17:07:06.408Z,88.81
2018-01-10T17:09:34.740Z,88.64
2018-01-10T17:12:03.828Z,87.59
2018-01-10T17:14:32.187Z,86.96
2018-01-10T17:17:00.501Z,86.99
2018-01-10T17:19:29.628Z,86.82
2018-01-10T17:21:57.959Z,87.02
2018-01-10T17:24:26.284Z,87.20
2018-01-10T17:26:54.635Z,87.26
2018-01-10T17:29:22.960Z,87.23
2018-01-10T17:31:51.315Z,87.45
2018-01-10T17:34:19.641Z,87.96
2018-01-10T17:36:47.966Z,88.18
2018-01-10T17:39:16.308Z,88.67
2018-01-10T17:41:46.352Z,88.85
2018-01-10T17:44:14.681Z,88.99
2018-01-10T17:46:43.084Z,89.46
2018-01-10T17:49:12.317Z,89.82
2018-01-10T17:51:40.694Z,89.43
2018-01-10T17:54:09.072Z,89.50
2018-01-10T17:56:37.500Z,89.49
2018-01-10T17:59:06.681Z,89.79
2018-01-10T18:01:35.066Z,90.04
2018-01-10T18:04:03.476Z,89.75
2018-01-10T18:06:32.692Z,89.82
2018-01-10T18:09:01.097Z,89.40
2018-01-10T18:11:29.547Z,89.39
2018-01-10T18:13:58.093Z,89.67
2018-01-10T18:16:27.466Z,89.52
2018-01-10T18:18:56.036Z,89.25
2018-01-10T18:21:24.722Z,89.20
2018-01-10T18:23:53.298Z,89.55
2018-01-10T18:26:21.877Z,89.51
2018-01-10T18:28:50.528Z,89.73
2018-01-10T18:31:19.115Z,89.82
2018-01-10T18:33:47.612Z,90.05
2018-01-10T18:36:16.187Z,89.88
2018-01-10T18:38:44.766Z,90.20
2018-01-10T18:41:13.339Z,90.64
2018-01-10T18:43:41.935Z,90.55
2018-01-10T18:46:10.598Z,91.15
2018-01-10T18:48:39.233Z,91.12
2018-01-10T18:51:07.886Z,91.08
2018-01-10T18:53:36.585Z,90.63
2018-01-10T18:56:05.218Z,90.36
2018-01-10T18:58:33.902Z,90.87
2018-01-10T19:01:03.399Z,91.42
2018-01-10T19:03:32.026Z,91.41
2018-01-10T19:06:00.645Z,91.32
2018-01-10T19:08:29.300Z,90.93
2018-01-10T19:10:57.940Z,90.58
2018-01-10T19:13:26.599Z,90.58
2018-01-10T19:15:55.310Z,90.92
2018-01-10T19:18:23.882Z,91.16
2018-01-10T19:20:52.446Z,92.00
2018-01-10T19:23:20.988Z,91.93
2018-01-10T19:25:49.394Z,91.71
2018-01-10T19:28:18.716Z,91.62
2018-01-10T19:33:21.628Z,91.43
2018-01-10T19:35:49.999Z,91.55
2018-01-10T19:38:18.464Z,91.95
2018-01-10T19:40:47.580Z,92.59
2018-01-10T19:43:15.917Z,92.69
2018-01-10T19:45:44.284Z,91.86
2018-01-10T19:48:12.665Z,91.86
2018-01-10T19:50:41.000Z,92.11
2018-01-10T19:53:09.377Z,91.98
2018-01-10T19:55:37.836Z,92.83
2018-01-10T19:58:06.225Z,92.92
2018-01-10T20:00:34.592Z,92.32
2018-01-10T20:03:03.688Z,92.38
2018-01-10T20:05:32.818Z,92.22
2018-01-10T20:08:01.157Z,92.00
2018-01-10T20:10:30.252Z,91.91
2018-01-10T20:12:59.395Z,91.23
2018-01-10T20:15:27.725Z,90.47
2018-01-10T20:17:56.069Z,90.49
2018-01-10T20:20:24.420Z,90.83
2018-01-10T20:22:52.738Z,90.97
2018-01-10T20:25:21.100Z,91.20
2018-01-10T20:27:49.441Z,91.24
2018-01-10T20:30:17.795Z,91.44
2018-01-10T20:32:46.922Z,91.42
2018-01-10T20:35:15.269Z,91.57
2018-01-10T20:37:44.421Z,92.62
2018-01-10T20:40:12.747Z,92.43
2018-01-10T20:42:41.120Z,93.52
2018-01-10T20:45:10.216Z,94.17
2018-01-10T20:47:39.376Z,94.37
2018-01-10T20:50:07.729Z,94.34
2018-01-10T20:52:36.076Z,94.49
2018-01-10T20:55:05.192Z,94.83
2018-01-10T20:57:33.560Z,95.37
2018-01-10T21:00:02.667Z,95.46
2018-01-10T21:02:31.038Z,95.65
2018-01-10T21:04:59.401Z,95.79
2018-01-10T21:07:27.736Z,95.93
2018-01-10T21:09:56.110Z,95.94
2018-01-10T21:12:25.120Z,95.99
2018-01-10T21:14:53.465Z,95.89
2018-01-10T21:17:21.816Z,95.58
2018-01-10T21:19:50.180Z,95.39
2018-01-10T21:22:19.268Z,95.34
2018-01-10T21:24:47.597Z,95.37
2018-01-10T21:27:15.972Z,95.61
2018-01-10T21:29:44.309Z,95.45
2018-01-10T21:32:13.406Z,95.14
2018-01-10T21:34:42.539Z,94.97
2018-01-10T21:37:10.872Z,94.46
2018-01-10T21:39:39.208Z,94.43
2018-01-10T21:42:07.583Z,94.41
2018-01-10T21:44:35.912Z,94.44
2018-01-10T21:47:05.079Z,94.36
2018-01-10T21:49:33.451Z,93.99
2018-01-10T21:52:01.861Z,94.02
2018-01-10T21:54:30.230Z,94.02
2018-01-10T21:56:58.600Z,94.09
2018-01-10T21:59:26.972Z,93.96
2018-01-10T22:01:55.292Z,93.93
2018-01-10T22:04:23.624Z,93.79
2018-01-10T22:06:51.976Z,93.76
2018-01-10T22:09:21.187Z,93.84
2018-01-10T22:11:49.536Z,93.57
2018-01-10T22:14:17.906Z,93.29
2018-01-10T22:16:46.237Z,93.04
2018-01-10T22:19:14.595Z,93.03
2018-01-10T22:21:42.933Z,92.97
2018-01-10T22:24:12.040Z,93.03
2018-01-10T22:26:41.161Z,92.83
2018-01-10T22:29:09.496Z,92.84
2018-01-10T22:31:37.856Z,93.15
2018-01-10T22:34:06.228Z,93.09
2018-01-10T22:36:34.568Z,92.92
2018-01-10T22:39:02.888Z,92.68
2018-01-10T22:41:31.265Z,92.25
2018-01-10T22:43:59.588Z,92.38
2018-01-10T22:46:27.927Z,92.81
2018-01-10T22:48:56.284Z,93.16
2018-01-10T22:51:24.600Z,92.87
2018-01-10T22:53:52.964Z,92.96
2018-01-10T22:56:21.283Z,93.46
2018-01-10T22:58:49.628Z,93.80
2018-01-10T23:01:17.985Z,93.79
2018-01-10T23:03:46.333Z,93.41
2018-01-10T23:06:14.670Z,93.30
2018-01-10T23:08:43.805Z,93.14
2018-01-10T23:11:12.121Z,93.02
2018-01-10T23:13:40.445Z,92.81
2018-01-10T23:16:08.800Z,92.58
2018-01-10T23:18:37.895Z,92.80
2018-01-10T23:21:07.045Z,92.86
2018-01-10T23:23:35.392Z,92.69
2018-01-10T23:26:03.720Z,92.77
2018-01-10T23:28:32.073Z,92.73
2018-01-10T23:31:00.396Z,92.74
2018-01-10T23:33:28.747Z,92.25
2018-01-10T23:35:57.083Z,92.34
2018-01-10T23:38:25.403Z,92.39
2018-01-10T23:40:53.759Z,92.55
2018-01-10T23:43:22.109Z,92.96
2018-01-10T23:45:50.440Z,93.53
2018-01-10T23:48:18.792Z,93.58
2018-01-10T23:50:47.112Z,93.29
2018-01-10T23:53:15.469Z,93.04
2018-01-10T23:55:43.840Z,92.77
2018-01-10T23:58:12.187Z,92.29
